Time;durP1;ratioP1;P1;durP2;ratioP2;P2;SDS_P1;SDS_P2;PMS_P1;PMS_P2;Temp;Humidity;BMP_temperature;BMP_pressure;BME280_temperature;BME280_humidity;BME280_pressure;Samples;Min_cycle;Max_cycle;Signal;HPM_P1;HPM_P2
2022/06/03 00:01:09;;;;;;;2.45;2.03;;;13.70;99.90;;;;;;5053856;28;20107;-37
2022/06/03 00:03:41;;;;;;;2.05;1.83;;;13.60;99.90;;;;;;5053785;28;20021;-42
2022/06/03 00:06:28;;;;;;;2.42;2.22;;;13.60;99.90;;;;;;5037049;28;20029;-37
2022/06/03 00:08:54;;;;;;;;;;;13.60;99.90;;;;;;5034109;28;20448;-35
2022/06/03 00:11:49;;;;;;;3.53;1.70;;;13.60;99.90;;;;;;5033729;28;19948;-36
2022/06/03 00:14:39;;;;;;;4.97;2.17;;;13.50;99.90;;;;;;5035835;28;20045;-41
2022/06/03 00:17:39;;;;;;;2.78;1.75;;;13.50;99.90;;;;;;5033557;28;20034;-32
2022/06/03 00:20:31;;;;;;;3.40;2.00;;;13.50;99.90;;;;;;5032331;28;20041;-31
2022/06/03 00:23:16;;;;;;;3.00;1.90;;;13.40;99.90;;;;;;5033783;28;20104;-30
2022/06/03 00:25:48;;;;;;;3.08;2.40;;;13.40;99.90;;;;;;5046777;28;20029;-33
2022/06/03 00:28:38;;;;;;;4.93;1.98;;;13.40;99.90;;;;;;5053395;28;20493;-34
2022/06/03 00:31:09;;;;;;;6.22;2.55;;;13.40;99.90;;;;;;5052577;28;20021;-27
2022/06/03 00:33:47;;;;;;;5.50;2.97;;;13.30;99.90;;;;;;5043405;28;20123;-36
2022/06/03 00:36:31;;;;;;;4.93;2.10;;;13.30;99.90;;;;;;5042638;28;20504;-37
2022/06/03 00:39:28;;;;;;;3.25;2.05;;;13.30;99.90;;;;;;5043487;28;20025;-36
2022/06/03 00:42:19;;;;;;;4.07;1.80;;;13.30;99.90;;;;;;5034197;28;20038;-37
2022/06/03 00:45:05;;;;;;;5.82;1.88;;;13.20;99.90;;;;;;5034831;28;20083;-36
2022/06/03 00:48:08;;;;;;;3.78;1.55;;;13.20;99.90;;;;;;5044041;28;20032;-36
2022/06/03 00:51:09;;;;;;;5.20;1.90;;;13.20;99.90;;;;;;5029795;28;20034;-38
2022/06/03 00:53:41;;;;;;;4.32;2.08;;;13.20;99.90;;;;;;5002945;28;20029;-37
2022/06/03 00:56:10;;;;;;;4.03;1.80;;;13.10;99.90;;;;;;5036620;28;20497;-36
2022/06/03 00:58:57;;;;;;;6.78;1.77;;;13.10;99.90;;;;;;5045658;28;20480;-40
2022/06/03 01:01:31;;;;;;;2.55;1.50;;;13.10;99.90;;;;;;5049785;28;20473;-36
2022/06/03 01:04:18;;;;;;;2.10;1.90;;;13.10;99.90;;;;;;5051480;28;20032;-36
2022/06/03 01:06:47;;;;;;;2.10;1.90;;;13.10;99.90;;;;;;5051594;28;20021;-37
2022/06/03 01:09:27;;;;;;;2.58;2.05;;;13.10;99.90;;;;;;5048685;28;20761;-36
2022/06/03 01:12:03;;;;;;;3.88;2.47;;;13.10;99.90;;;;;;5043980;28;20377;-35
2022/06/03 01:14:49;;;;;;;2.30;1.70;;;13.10;99.90;;;;;;5043630;28;20041;-36
2022/06/03 01:17:33;;;;;;;3.92;2.03;;;13.00;99.90;;;;;;5037537;28;20564;-36
2022/06/03 01:20:07;;;;;;;4.15;2.05;;;13.00;99.90;;;;;;5035233;28;20036;-35
2022/06/03 01:22:59;;;;;;;3.03;1.95;;;13.10;99.90;;;;;;5032815;28;20030;-28
2022/06/03 01:25:44;;;;;;;2.33;1.92;;;13.10;99.90;;;;;;5038742;28;20508;-33
2022/06/03 01:28:43;;;;;;;3.28;1.73;;;13.10;99.90;;;;;;5041448;28;20033;-31
2022/06/03 01:31:42;;;;;;;4.20;2.20;;;13.00;99.90;;;;;;5036146;28;20028;-29
2022/06/03 01:34:42;;;;;;;3.08;2.00;;;13.00;99.90;;;;;;5040805;28;20033;-35
2022/06/03 01:37:19;;;;;;;6.80;1.90;;;13.00;99.90;;;;;;5046199;28;20041;-35
2022/06/03 01:39:59;;;;;;;3.55;2.03;;;13.00;99.90;;;;;;5051277;28;20474;-28
2022/06/03 01:42:52;;;;;;;7.43;1.90;;;13.00;99.90;;;;;;5034784;28;20026;-28
2022/06/03 01:45:51;;;;;;;3.72;1.75;;;12.90;99.90;;;;;;5048595;28;20528;-29
2022/06/03 01:48:17;;;;;;;5.68;2.17;;;12.90;99.90;;;;;;5036937;28;20139;-29
2022/06/03 01:51:03;;;;;;;2.03;1.90;;;12.80;99.90;;;;;;5043492;28;20485;-28
2022/06/03 01:53:57;;;;;;;9.57;2.60;;;12.80;99.90;;;;;;5035729;28;20067;-33
2022/06/03 01:56:38;;;;;;;7.60;2.20;;;12.80;99.90;;;;;;5032881;28;20474;-29
2022/06/03 01:59:06;;;;;;;2.63;2.13;;;12.80;99.90;;;;;;5036184;28;20030;-47
2022/06/03 02:02:00;;;;;;;3.28;1.52;;;12.80;99.90;;;;;;5045811;28;20059;-36
2022/06/03 02:04:55;;;;;;;2.28;2.08;;;12.80;99.90;;;;;;5036326;28;20397;-41
2022/06/03 02:07:45;;;;;;;4.00;1.85;;;12.80;99.90;;;;;;5051143;28;20116;-37
2022/06/03 02:10:42;;;;;;;3.28;2.28;;;12.80;99.90;;;;;;5054443;28;20436;-41
2022/06/03 02:13:29;;;;;;;4.50;2.30;;;12.80;99.90;;;;;;5055676;28;20021;-36
2022/06/03 02:16:28;;;;;;;3.30;1.73;;;12.80;99.90;;;;;;5041804;28;20049;-37
2022/06/03 02:19:10;;;;;;;3.78;2.13;;;12.80;99.90;;;;;;5035864;28;20064;-37
2022/06/03 02:22:07;;;;;;;6.43;2.08;;;12.80;99.90;;;;;;5033113;28;20374;-41
2022/06/03 02:24:54;;;;;;;4.93;2.40;;;12.70;99.90;;;;;;5041390;28;20591;-36
2022/06/03 02:27:32;;;;;;;2.13;1.98;;;12.70;99.90;;;;;;5048019;28;20668;-36
2022/06/03 02:30:28;;;;;;;4.63;2.03;;;12.70;99.90;;;;;;5040403;28;20535;-36
2022/06/03 02:33:12;;;;;;;3.15;1.92;;;12.70;99.90;;;;;;5047370;28;20017;-35
2022/06/03 02:35:58;;;;;;;3.97;2.17;;;12.70;99.90;;;;;;5052059;28;20477;-64
2022/06/03 02:38:38;;;;;;;4.47;2.00;;;12.60;99.90;;;;;;5046359;28;20021;-35
2022/06/03 02:41:17;;;;;;;3.55;1.65;;;12.60;99.90;;;;;;5043178;28;20440;-35
2022/06/03 02:44:08;;;;;;;3.40;2.08;;;12.70;99.90;;;;;;5035930;28;20547;-36
2022/06/03 02:46:41;;;;;;;4.35;1.80;;;12.70;99.90;;;;;;5041866;28;20477;-36
2022/06/03 02:49:38;;;;;;;2.17;2.03;;;12.70;99.90;;;;;;5036971;28;20080;-37
2022/06/03 02:52:33;;;;;;;4.13;1.98;;;12.60;99.90;;;;;;5044246;28;20041;-37
2022/06/03 02:55:09;;;;;;;2.53;2.10;;;12.60;99.90;;;;;;5054442;28;20068;-36
2022/06/03 02:57:49;;;;;;;2.75;2.03;;;12.60;99.90;;;;;;5051805;28;20037;-38
2022/06/03 03:00:42;;;;;;;2.72;1.80;;;12.60;99.90;;;;;;5044568;28;20469;-37
2022/06/03 03:03:26;;;;;;;3.50;1.92;;;12.60;99.90;;;;;;5034983;28;20052;-36
2022/06/03 03:06:10;;;;;;;3.03;1.90;;;12.60;99.90;;;;;;5053410;28;20461;-37
2022/06/03 03:08:56;;;;;;;6.95;2.20;;;12.60;99.90;;;;;;5042852;28;20049;-37
2022/06/03 03:11:58;;;;;;;3.85;2.65;;;12.60;99.90;;;;;;5051739;28;20505;-41
2022/06/03 03:14:54;;;;;;;2.08;1.88;;;12.60;99.90;;;;;;5053788;28;20041;-33
2022/06/03 03:17:20;;;;;;;2.10;1.80;;;12.60;99.90;;;;;;5035310;28;20041;-30
2022/06/03 03:20:12;;;;;;;4.15;2.03;;;12.60;99.90;;;;;;5037559;28;20051;-28
2022/06/03 03:22:44;;;;;;;6.80;2.50;;;12.60;99.90;;;;;;5047495;28;20088;-32
2022/06/03 03:25:34;;;;;;;3.15;2.42;;;12.60;99.90;;;;;;5052447;28;20563;-34
2022/06/03 03:28:05;;;;;;;2.53;2.10;;;12.60;99.90;;;;;;5035128;28;20486;-32
2022/06/03 03:30:52;;;;;;;6.47;2.17;;;12.60;99.90;;;;;;5049657;28;20473;-28
2022/06/03 03:33:54;;;;;;;7.83;2.97;;;12.60;99.90;;;;;;5051354;28;20100;-30
2022/06/03 03:36:34;;;;;;;3.25;2.08;;;12.60;99.90;;;;;;5044000;28;20032;-32
2022/06/03 03:39:28;;;;;;;2.35;2.15;;;12.60;99.90;;;;;;5036413;28;20550;-32
2022/06/03 03:42:16;;;;;;;2.50;2.15;;;12.50;99.90;;;;;;5037051;28;20496;-31
2022/06/03 03:45:09;;;;;;;3.30;2.80;;;12.60;99.90;;;;;;5047316;28;20036;-30
2022/06/03 03:47:38;;;;;;;3.78;2.30;;;12.60;99.90;;;;;;5040323;28;20086;-28
2022/06/03 03:50:32;;;;;;;3.33;2.35;;;12.60;99.90;;;;;;5049451;28;20017;-30
2022/06/03 03:53:18;;;;;;;6.32;2.47;;;12.60;99.90;;;;;;5035814;28;20064;-35
2022/06/03 03:55:49;;;;;;;4.40;2.17;;;12.60;99.90;;;;;;5049875;28;20493;-32
2022/06/03 03:58:43;;;;;;;12.00;3.38;;;12.60;99.90;;;;;;5052678;28;20390;-28
2022/06/03 04:01:21;;;;;;;4.28;2.53;;;12.60;99.90;;;;;;5053909;28;20021;-32
2022/06/03 04:03:50;;;;;;;;;;;12.60;99.90;;;;;;5034685;28;20500;-31
2022/06/03 04:06:46;;;;;;;2.95;2.30;;;12.50;99.90;;;;;;5033995;28;20365;-32
2022/06/03 04:09:33;;;;;;;2.58;2.20;;;12.60;99.90;;;;;;5033753;28;20029;-28
2022/06/03 04:12:08;;;;;;;4.88;2.47;;;12.50;99.90;;;;;;5034063;28;20104;-28
2022/06/03 04:14:57;;;;;;;3.00;2.35;;;12.50;99.90;;;;;;5033404;28;20489;-31
2022/06/03 04:17:42;;;;;;;4.63;2.45;;;12.50;99.90;;;;;;5047787;28;20402;-31
2022/06/03 04:20:26;;;;;;;4.05;2.50;;;12.40;99.90;;;;;;5037399;28;20362;-28
2022/06/03 04:23:00;;;;;;;4.55;2.35;;;12.40;99.90;;;;;;5038323;28;20402;-31
2022/06/03 04:25:38;;;;;;;4.68;2.35;;;12.40;99.90;;;;;;5036400;28;20159;-29
2022/06/03 04:28:28;;;;;;;6.47;2.75;;;12.40;99.90;;;;;;5046127;28;20470;-48
2022/06/03 04:31:18;;;;;;;5.40;3.85;;;12.40;99.90;;;;;;5047109;28;20552;-37
2022/06/03 04:33:55;;;;;;;5.03;2.65;;;12.40;99.90;;;;;;5038667;28;20091;-37
2022/06/03 04:36:58;;;;;;;7.18;2.75;;;12.40;99.90;;;;;;5044361;28;20032;-37
2022/06/03 04:40:05;;;;;;;3.58;2.55;;;12.40;99.90;;;;;;5051802;28;20033;-37
2022/06/03 04:42:45;;;;;;;3.42;2.28;;;12.40;99.90;;;;;;5028011;28;20481;-35
2022/06/03 04:46:01;;;;;;;5.97;2.65;;;12.40;99.90;;;;;;5048863;28;20037;-36
2022/06/03 04:49:04;;;;;;;3.67;2.58;;;12.40;99.90;;;;;;5043648;28;20025;-50
2022/06/03 04:51:33;;;;;;;4.93;2.70;;;12.40;99.90;;;;;;5036710;28;20033;-35
2022/06/03 04:54:17;;;;;;;4.47;2.72;;;12.40;99.90;;;;;;5034833;28;20033;-36
2022/06/03 04:57:24;;;;;;;3.65;2.42;;;12.40;99.90;;;;;;5045838;28;20040;-36
2022/06/03 05:00:10;;;;;;;3.00;2.53;;;12.50;99.90;;;;;;5049165;28;20039;-37
2022/06/03 05:03:32;;;;;;;3.00;2.40;;;12.60;99.90;;;;;;5037742;28;20485;-37
2022/06/03 05:06:38;;;;;;;4.80;3.15;;;12.70;99.90;;;;;;4978678;28;20038;-36
2022/06/03 05:09:35;;;;;;;6.28;3.60;;;12.70;99.90;;;;;;5032418;28;20505;-36
2022/06/03 05:12:25;;;;;;;2.42;2.13;;;12.80;99.90;;;;;;5048059;28;20382;-36
2022/06/03 05:15:14;;;;;;;5.25;2.88;;;12.90;99.90;;;;;;5037279;28;20572;-36
2022/06/03 05:17:46;;;;;;;5.07;2.80;;;12.90;99.90;;;;;;5040006;28;20033;-36
2022/06/03 05:20:20;;;;;;;3.53;3.22;;;13.00;99.90;;;;;;5032544;28;20108;-37
2022/06/03 05:22:52;;;;;;;3.80;2.67;;;13.00;99.90;;;;;;5045624;28;20539;-36
2022/06/03 05:25:47;;;;;;;2.85;2.53;;;13.10;99.90;;;;;;5044670;28;20117;-36
2022/06/03 05:28:21;;;;;;;3.13;2.80;;;13.10;99.90;;;;;;5041298;28;20107;-36
2022/06/03 05:31:34;;;;;;;4.13;3.10;;;13.30;99.90;;;;;;5047123;28;20032;-32
2022/06/03 05:34:30;;;;;;;3.15;2.65;;;13.40;99.90;;;;;;5022992;28;20033;-28
2022/06/03 05:37:26;;;;;;;6.05;3.15;;;13.50;99.90;;;;;;5051421;28;20417;-36
2022/06/03 05:40:21;;;;;;;4.00;2.88;;;13.60;99.90;;;;;;5055151;28;20029;-30
2022/06/03 05:43:18;;;;;;;5.47;3.08;;;13.70;99.90;;;;;;5036919;28;20483;-43
2022/06/03 05:46:02;;;;;;;3.25;2.75;;;13.80;99.90;;;;;;5039758;28;20032;-36
2022/06/03 05:48:55;;;;;;;3.00;2.70;;;13.90;99.90;;;;;;5041104;28;20040;-35
2022/06/03 05:51:27;;;;;;;5.30;3.28;;;14.00;99.90;;;;;;5038302;28;20029;-40
2022/06/03 05:54:26;;;;;;;3.50;2.70;;;14.10;99.90;;;;;;5038802;28;20381;-43
2022/06/03 05:56:59;;;;;;;2.85;2.63;;;14.20;99.90;;;;;;5036275;28;20044;-43
2022/06/03 05:59:56;;;;;;;2.83;2.20;;;14.30;99.90;;;;;;5046393;28;20447;-38
2022/06/03 06:02:59;;;;;;;3.92;2.88;;;14.50;99.90;;;;;;5056188;28;20082;-38
2022/06/03 06:05:39;;;;;;;3.72;2.83;;;14.80;99.90;;;;;;5053241;28;20389;-37
2022/06/03 06:08:36;;;;;;;5.53;3.00;;;15.00;99.90;;;;;;5056198;28;20505;-30
2022/06/03 06:11:40;;;;;;;4.53;2.97;;;15.30;99.90;;;;;;5055381;28;20385;-34
2022/06/03 06:14:40;;;;;;;8.15;2.83;;;15.60;99.90;;;;;;5051155;28;20038;-34
2022/06/03 06:17:25;;;;;;;7.28;2.80;;;15.90;99.90;;;;;;5036282;28;20049;-29
2022/06/03 06:20:02;;;;;;;4.68;2.72;;;18.00;99.90;;;;;;5043289;28;20052;-38
2022/06/03 06:22:34;;;;;;;3.40;1.98;;;20.60;99.90;;;;;;5039462;28;20470;-37
2022/06/03 06:25:10;;;;;;;4.57;2.05;;;22.70;99.90;;;;;;5047845;28;20461;-38
2022/06/03 06:28:01;;;;;;;2.42;2.05;;;24.30;98.10;;;;;;5054592;28;20492;-37
2022/06/03 06:30:48;;;;;;;5.00;2.00;;;25.30;96.30;;;;;;5043677;28;20029;-38
2022/06/03 06:33:36;;;;;;;2.72;2.15;;;26.10;95.10;;;;;;5052655;28;20503;-38
2022/06/03 06:36:39;;;;;;;3.97;2.17;;;26.00;94.40;;;;;;5038695;28;20030;-45
2022/06/03 06:39:35;;;;;;;4.00;1.92;;;26.50;93.70;;;;;;5045135;28;20037;-36
2022/06/03 06:42:04;;;;;;;8.82;2.45;;;26.70;93.60;;;;;;5034568;28;20108;-44
2022/06/03 06:44:55;;;;;;;2.13;1.88;;;26.10;93.70;;;;;;5053975;28;20044;-36
2022/06/03 06:47:46;;;;;;;4.32;2.22;;;24.80;94.40;;;;;;5031590;28;20045;-38
2022/06/03 06:50:22;;;;;;;5.40;2.08;;;22.50;96.10;;;;;;5042313;28;20040;-38
2022/06/03 06:53:04;;;;;;;2.28;1.98;;;21.00;97.50;;;;;;5050593;28;20102;-38
2022/06/03 06:55:46;;;;;;;5.88;1.90;;;20.30;98.60;;;;;;5044041;28;20025;-36
2022/06/03 06:58:42;;;;;;;2.58;2.38;;;20.10;99.40;;;;;;5054260;28;20031;-37
2022/06/03 07:01:10;;;;;;;3.20;2.50;;;20.70;98.60;;;;;;5052908;28;20028;-38
2022/06/03 07:03:43;;;;;;;2.15;1.98;;;22.00;98.00;;;;;;5053179;28;20053;-36
2022/06/03 07:06:23;;;;;;;5.72;2.03;;;23.80;96.80;;;;;;5050726;28;20041;-38
2022/06/03 07:09:11;;;;;;;3.30;2.35;;;25.10;95.00;;;;;;5053388;28;20032;-33
2022/06/03 07:11:50;;;;;;;4.00;2.10;;;26.00;94.50;;;;;;5053191;28;20107;-37
2022/06/03 07:14:24;;;;;;;1.92;1.55;;;26.40;93.70;;;;;;5052644;28;20044;-36
2022/06/03 07:20:17;;;;;;;2.08;1.90;;;26.80;93.40;;;;;;5046146;28;20036;-34
2022/06/03 07:22:43;;;;;;;4.57;2.17;;;26.50;93.00;;;;;;5034948;28;20023;-29
2022/06/03 07:25:26;;;;;;;3.40;2.13;;;26.20;93.40;;;;;;5040866;28;20036;-29
2022/06/03 07:27:57;;;;;;;2.03;1.83;;;26.20;93.10;;;;;;5033619;28;20036;-34
2022/06/03 07:30:37;;;;;;;3.05;2.15;;;25.80;93.50;;;;;;5042762;28;20053;-34
2022/06/03 07:33:13;;;;;;;4.30;2.03;;;25.70;93.30;;;;;;5035550;28;20024;-31
2022/06/03 07:35:56;;;;;;;1.83;1.73;;;25.20;93.60;;;;;;5042012;28;20115;-30
2022/06/03 07:38:33;;;;;;;2.35;1.52;;;24.80;93.90;;;;;;5043170;28;20030;-32
2022/06/03 07:41:09;;;;;;;2.75;1.77;;;24.50;94.50;;;;;;5043344;28;20033;-31
2022/06/03 07:43:44;;;;;;;2.65;1.70;;;24.20;94.80;;;;;;5033897;28;20029;-29
2022/06/03 07:46:22;;;;;;;2.08;1.85;;;23.60;95.20;;;;;;5032744;28;20037;-30
2022/06/03 07:48:48;;;;;;;1.88;1.75;;;23.10;95.10;;;;;;5052596;28;20466;-31
2022/06/03 07:51:42;;;;;;;2.15;1.80;;;22.50;95.90;;;;;;5054171;28;20043;-38
2022/06/03 07:54:30;;;;;;;1.85;1.65;;;22.60;95.80;;;;;;5052689;28;20375;-33
2022/06/03 07:57:01;;;;;;;1.92;1.83;;;22.70;95.70;;;;;;5053991;28;20021;-33
2022/06/03 07:59:32;;;;;;;2.80;1.88;;;23.10;94.80;;;;;;5039995;28;20021;-35
2022/06/03 08:02:21;;;;;;;3.22;1.52;;;22.90;95.70;;;;;;5047230;28;20029;-32
2022/06/03 08:05:03;;;;;;;2.05;1.83;;;22.90;95.40;;;;;;5034503;28;20481;-32
2022/06/03 08:13:07;;;;;;;1.65;1.55;;;23.00;95.20;;;;;;5052477;28;20052;-38
2022/06/03 08:15:36;;;;;;;4.03;1.83;;;23.30;95.70;;;;;;5052131;28;20041;-38
2022/06/03 08:18:07;;;;;;;1.42;1.25;;;23.30;94.80;;;;;;5048056;28;20393;-39
2022/06/03 08:21:01;;;;;;;1.83;1.73;;;23.70;95.30;;;;;;5051936;28;20065;-36
2022/06/03 08:23:30;;;;;;;3.15;1.60;;;23.60;94.80;;;;;;5033212;28;20040;-31
2022/06/03 08:25:59;;;;;;;3.47;2.60;;;23.30;95.60;;;;;;5033865;28;20512;-33
2022/06/03 08:28:30;;;;;;;1.88;1.73;;;22.70;95.30;;;;;;5050737;28;20172;-34
2022/06/03 08:30:57;;;;;;;3.47;1.98;;;22.60;96.00;;;;;;5052322;28;20476;-37
2022/06/03 08:33:31;;;;;;;2.97;1.90;;;22.10;96.00;;;;;;5033809;28;20060;-59
2022/06/03 08:35:56;;;;;;;3.95;1.20;;;22.50;96.10;;;;;;5033080;28;20417;-40
2022/06/03 08:38:31;;;;;;;1.58;1.17;;;23.50;95.20;;;;;;5034045;28;20025;-29
2022/06/03 08:41:09;;;;;;;2.38;1.63;;;24.40;95.00;;;;;;5033354;28;20018;-35
2022/06/03 08:43:43;;;;;;;1.70;1.60;;;24.60;94.90;;;;;;5033231;28;20032;-45
2022/06/03 08:46:15;;;;;;;2.60;1.70;;;25.10;94.40;;;;;;5034484;28;20503;-35
2022/06/03 08:48:45;;;;;;;1.73;1.63;;;25.10;93.60;;;;;;5053115;28;20025;-37
2022/06/03 08:51:18;;;;;;;1.50;1.40;;;24.80;93.80;;;;;;5051891;28;20048;-33
2022/06/03 08:53:50;;;;;;;1.75;1.33;;;25.20;93.80;;;;;;5052804;28;20104;-63
2022/06/03 08:56:37;;;;;;;2.03;1.50;;;25.30;93.70;;;;;;5052988;28;20029;-39
2022/06/03 08:59:17;;;;;;;2.00;1.90;;;25.60;93.50;;;;;;5052932;28;20021;-37
2022/06/03 09:02:04;;;;;;;2.10;1.90;;;25.10;93.10;;;;;;5053355;28;20465;-39
2022/06/03 09:04:46;;;;;;;1.88;1.48;;;25.00;93.70;;;;;;5053285;28;20489;-40
2022/06/03 09:07:32;;;;;;;2.97;1.50;;;25.10;93.50;;;;;;5054603;28;20029;-39
2022/06/03 09:10:30;;;;;;;2.67;1.47;;;25.20;93.60;;;;;;5057270;28;20404;-39
2022/06/03 09:13:11;;;;;;;2.08;1.50;;;25.40;93.70;;;;;;5057090;28;20020;-38
2022/06/03 09:15:43;;;;;;;3.25;1.65;;;25.80;93.20;;;;;;5055575;28;20069;-36
2022/06/03 09:18:14;;;;;;;1.52;1.42;;;25.40;93.40;;;;;;5057044;28;20017;-38
2022/06/03 09:20:52;;;;;;;3.75;1.45;;;25.30;93.70;;;;;;5056929;28;20389;-39
2022/06/03 09:23:20;;;;;;;1.35;1.25;;;25.10;94.10;;;;;;5053505;28;20503;-39
2022/06/03 09:25:52;;;;;;;1.60;1.48;;;25.20;93.70;;;;;;5036916;28;20032;-38
2022/06/03 09:28:31;;;;;;;1.80;1.33;;;25.00;93.40;;;;;;5036978;28;20432;-38
2022/06/03 09:30:59;;;;;;;2.30;1.95;;;25.00;94.20;;;;;;5036879;28;20113;-38
2022/06/03 09:33:27;;;;;;;6.07;1.60;;;24.70;93.80;;;;;;5036699;28;20028;-39
2022/06/03 09:35:56;;;;;;;6.78;1.80;;;24.20;94.30;;;;;;5036893;28;20488;-39
2022/06/03 09:38:25;;;;;;;2.05;1.88;;;24.30;94.90;;;;;;5036900;28;20025;-38
2022/06/03 09:40:52;;;;;;;4.10;2.00;;;24.80;94.10;;;;;;5036614;28;20055;-38
2022/06/03 09:43:20;;;;;;;;;;;24.80;93.90;;;;;;5037011;28;20026;-46
2022/06/03 09:45:49;;;;;;;1.65;1.55;;;24.30;94.20;;;;;;5036775;28;20365;-37
2022/06/03 09:48:20;;;;;;;1.42;1.33;;;24.10;94.70;;;;;;5036489;28;20029;-38
2022/06/03 09:50:48;;;;;;;3.15;1.40;;;24.40;93.30;;;;;;5036455;28;20025;-39
2022/06/03 09:53:18;;;;;;;1.23;1.10;;;25.10;92.20;;;;;;5036349;28;20469;-37
2022/06/03 09:55:59;;;;;;;1.40;1.30;;;25.50;92.40;;;;;;5036302;28;20017;-39
2022/06/03 09:58:30;;;;;;;1.50;1.40;;;25.40;92.40;;;;;;5036508;28;20022;-39
2022/06/03 10:00:58;;;;;;;1.73;1.30;;;25.50;93.40;;;;;;5036551;28;20021;-38
2022/06/03 10:03:25;;;;;;;2.13;1.20;;;26.00;93.50;;;;;;5036204;28;20053;-32
2022/06/03 10:05:54;;;;;;;1.35;1.25;;;26.20;92.60;;;;;;5036338;28;20359;-32
2022/06/03 10:08:24;;;;;;;4.20;1.50;;;25.70;92.30;;;;;;5035980;28;20363;-29
2022/06/03 10:13:55;;;;;;;3.53;1.50;;;25.60;92.80;;;;;;5036211;28;20176;-32
2022/06/03 10:16:21;;;;;;;1.70;1.35;;;26.00;92.20;;;;;;5035710;28;20042;-32
2022/06/03 10:18:49;;;;;;;3.70;0.90;;;26.00;92.00;;;;;;5035497;28;20401;-33
2022/06/03 10:21:14;;;;;;;1.85;1.00;;;25.70;91.90;;;;;;5036144;28;20794;-32
2022/06/03 10:23:44;;;;;;;1.92;1.38;;;25.70;92.30;;;;;;5035780;28;20021;-30
2022/06/03 10:26:33;;;;;;;4.88;1.42;;;25.90;92.60;;;;;;5036010;28;20478;-29
2022/06/03 10:29:14;;;;;;;6.20;1.70;;;26.10;91.80;;;;;;5035807;28;20030;-31
2022/06/03 10:31:40;;;;;;;2.65;1.30;;;26.20;92.50;;;;;;5035729;28;20121;-28
2022/06/03 10:34:12;;;;;;;1.25;1.05;;;25.90;91.70;;;;;;5035617;28;20057;-30
2022/06/03 10:36:43;;;;;;;3.75;0.85;;;25.60;91.60;;;;;;5035730;28;20022;-32
2022/06/03 10:39:14;;;;;;;2.03;0.70;;;25.90;91.00;;;;;;5035574;28;20076;-33
2022/06/03 10:41:45;;;;;;;1.48;1.38;;;26.50;89.20;;;;;;5035642;28;20029;-29
2022/06/03 10:44:13;;;;;;;1.20;1.10;;;26.90;90.10;;;;;;5035455;28;20026;-31
2022/06/03 10:47:16;;;;;;;0.68;0.68;;;27.10;90.10;;;;;;5035396;28;20032;-31
2022/06/03 10:49:55;;;;;;;0.98;0.90;;;26.90;89.90;;;;;;5035041;28;20112;-37
2022/06/03 11:01:06;;;;;;;2.67;1.38;;;25.60;91.10;;;;;;5035385;28;20033;-33
2022/06/03 11:03:33;;;;;;;1.15;1.08;;;25.60;91.60;;;;;;5035238;28;20482;-32
2022/06/03 11:06:07;;;;;;;;;;;25.60;90.60;;;;;;5035394;28;20025;-30
2022/06/03 11:09:03;;;;;;;1.00;1.00;;;25.40;91.20;;;;;;5035397;28;20353;-30
2022/06/03 11:11:48;;;;;;;1.05;1.00;;;25.10;91.30;;;;;;5034492;28;20041;-28
2022/06/03 11:14:26;;;;;;;3.28;1.30;;;25.10;91.80;;;;;;5035028;28;20033;-30
2022/06/03 11:17:40;;;;;;;1.40;1.00;;;25.40;90.80;;;;;;5034737;28;20026;-35
2022/06/03 11:20:30;;;;;;;2.88;1.10;;;25.50;91.40;;;;;;5034762;28;20037;-31
2022/06/03 11:22:56;;;;;;;1.20;1.08;;;25.20;90.90;;;;;;5034595;28;20045;-29
2022/06/03 11:25:28;;;;;;;1.42;1.33;;;24.90;91.50;;;;;;5033180;28;20021;-28
2022/06/03 11:28:03;;;;;;;1.63;1.02;;;24.80;91.90;;;;;;5034477;28;20504;-28
2022/06/03 11:30:34;;;;;;;3.08;1.20;;;24.70;91.60;;;;;;5033584;28;20033;-34
2022/06/03 11:33:28;;;;;;;3.08;1.40;;;24.70;91.80;;;;;;5034697;28;20478;-29
2022/06/03 11:36:05;;;;;;;1.40;1.10;;;24.70;91.40;;;;;;5033849;28;20044;-30
2022/06/03 11:38:59;;;;;;;1.17;0.90;;;25.00;91.60;;;;;;5035027;28;20104;-30
2022/06/03 11:41:26;;;;;;;1.75;1.15;;;25.10;90.40;;;;;;5014835;28;20067;-31
2022/06/03 11:44:00;;;;;;;1.10;1.05;;;25.50;90.00;;;;;;5034521;28;20535;-32
2022/06/03 11:46:34;;;;;;;0.90;0.75;;;25.60;90.20;;;;;;5034591;28;20021;-31
2022/06/03 11:49:19;;;;;;;1.15;1.10;;;25.80;89.90;;;;;;5034207;28;20104;-30
2022/06/03 11:51:46;;;;;;;0.93;0.90;;;26.10;88.70;;;;;;5034182;28;20036;-31
2022/06/03 11:54:15;;;;;;;1.58;1.00;;;26.20;89.90;;;;;;5034374;28;20457;-47
2022/06/03 11:56:43;;;;;;;3.00;0.80;;;26.20;86.20;;;;;;5033992;28;20033;-36
2022/06/03 11:59:31;;;;;;;2.20;0.90;;;26.30;87.80;;;;;;5038595;28;20492;-38
2022/06/03 12:01:59;;;;;;;3.05;0.90;;;26.30;84.30;;;;;;5035534;28;20045;-36
2022/06/03 12:04:33;;;;;;;1.25;0.88;;;26.50;82.20;;;;;;5050107;28;20116;-38
2022/06/03 12:07:13;;;;;;;1.58;0.90;;;26.70;82.60;;;;;;5053770;28;20392;-37
2022/06/03 12:09:45;;;;;;;1.45;0.70;;;26.80;84.50;;;;;;5041056;28;20032;-36
2022/06/03 12:15:35;;;;;;;1.45;0.80;;;26.80;84.70;;;;;;5043789;28;20082;-38
2022/06/03 12:18:06;;;;;;;3.95;1.00;;;26.70;85.70;;;;;;5052435;28;20116;-38
2022/06/03 12:20:48;;;;;;;1.73;0.88;;;26.50;84.60;;;;;;5037290;28;20140;-38
2022/06/03 12:23:13;;;;;;;1.38;0.93;;;26.30;85.10;;;;;;5049263;28;20465;-35
2022/06/03 12:25:45;;;;;;;1.17;0.65;;;26.40;82.60;;;;;;5035520;28;20033;-37
2022/06/03 12:28:27;;;;;;;1.45;0.82;;;26.20;85.80;;;;;;5039639;28;20488;-38
2022/06/03 12:31:00;;;;;;;0.88;0.88;;;26.10;86.20;;;;;;5041395;28;20052;-37
2022/06/03 12:33:48;;;;;;;0.55;0.55;;;26.10;86.30;;;;;;5053421;28;20031;-42
2022/06/03 12:36:32;;;;;;;1.00;0.80;;;26.20;87.30;;;;;;5053260;28;20485;-37
2022/06/03 12:39:00;;;;;;;0.93;0.70;;;26.30;87.90;;;;;;5043705;28;20047;-38
2022/06/03 12:41:55;;;;;;;0.90;0.90;;;26.40;86.60;;;;;;5039196;28;20556;-38
2022/06/03 12:44:47;;;;;;;1.73;1.02;;;26.40;86.80;;;;;;5024727;28;20112;-36
2022/06/03 12:47:18;;;;;;;1.98;0.82;;;26.30;86.40;;;;;;5032749;28;20112;-38
2022/06/03 12:49:44;;;;;;;1.38;0.80;;;26.40;86.30;;;;;;5044480;28;20033;-38
2022/06/03 12:52:29;;;;;;;1.38;0.95;;;26.40;86.00;;;;;;5044123;28;20094;-38
2022/06/03 12:55:46;;;;;;;2.25;1.02;;;26.20;87.40;;;;;;5034771;28;20033;-39
2022/06/03 12:58:36;;;;;;;;;;;26.10;86.10;;;;;;5028520;28;20041;-37
2022/06/03 13:01:05;;;;;;;3.92;0.90;;;25.60;87.20;;;;;;5033033;28;20475;-38
2022/06/03 13:03:34;;;;;;;2.63;1.00;;;25.70;88.40;;;;;;5044906;28;20485;-38
2022/06/03 13:06:05;;;;;;;2.35;0.98;;;25.80;86.50;;;;;;5049116;28;20029;-34
2022/06/03 13:08:33;;;;;;;1.17;1.08;;;26.10;86.80;;;;;;5051782;28;20036;-37
2022/06/03 13:11:30;;;;;;;1.05;0.98;;;26.00;85.60;;;;;;5039762;28;20037;-39
2022/06/03 13:13:56;;;;;;;1.55;0.98;;;26.00;86.50;;;;;;5051519;28;20048;-38
2022/06/03 13:16:37;;;;;;;2.55;1.35;;;26.20;86.80;;;;;;5049916;28;20038;-38
2022/06/03 13:19:17;;;;;;;0.70;0.70;;;26.20;87.60;;;;;;5034132;28;20029;-39
2022/06/03 13:21:58;;;;;;;2.83;1.20;;;26.40;88.00;;;;;;5036305;28;20099;-38
2022/06/03 13:24:25;;;;;;;1.25;0.95;;;26.60;85.10;;;;;;5040881;28;20120;-39
2022/06/03 13:27:20;;;;;;;0.93;0.93;;;26.60;85.70;;;;;;5036161;28;20025;-38
2022/06/03 13:29:52;;;;;;;1.85;1.08;;;26.30;87.10;;;;;;5035051;28;20065;-54
2022/06/03 13:32:20;;;;;;;1.75;0.90;;;26.20;87.00;;;;;;5046331;28;20033;-53
2022/06/03 13:34:46;;;;;;;0.80;0.80;;;26.40;87.50;;;;;;5049968;28;20025;-37
2022/06/03 13:37:32;;;;;;;3.42;0.75;;;26.30;87.30;;;;;;5033201;28;20043;-37
2022/06/03 13:39:57;;;;;;;0.98;0.98;;;26.40;86.90;;;;;;5045442;28;20025;-37
2022/06/03 13:42:58;;;;;;;1.02;1.00;;;26.50;85.80;;;;;;5049821;28;20029;-31
2022/06/03 13:45:27;;;;;;;6.63;1.10;;;26.50;85.70;;;;;;5051894;28;20519;-31
2022/06/03 13:47:57;;;;;;;3.35;1.33;;;26.40;86.20;;;;;;5050467;28;20033;-33
2022/06/03 13:50:28;;;;;;;0.75;0.75;;;26.40;86.40;;;;;;5037378;28;20463;-34
2022/06/03 13:53:04;;;;;;;1.63;1.00;;;26.20;86.00;;;;;;5033863;28;20040;-36
2022/06/03 13:55:35;;;;;;;0.80;0.80;;;26.30;86.00;;;;;;5036403;28;20037;-33
2022/06/03 13:58:19;;;;;;;0.95;0.95;;;26.40;86.60;;;;;;5035084;28;20068;-32
2022/06/03 14:00:50;;;;;;;1.33;0.90;;;26.40;86.10;;;;;;5050872;28;20441;-33
2022/06/03 14:03:43;;;;;;;0.98;0.90;;;26.50;86.20;;;;;;5056500;28;20484;-31
2022/06/03 14:06:20;;;;;;;2.40;0.93;;;26.60;84.70;;;;;;5056290;28;20037;-35
2022/06/03 14:08:52;;;;;;;0.80;0.80;;;26.80;84.60;;;;;;5055299;28;20060;-35
2022/06/03 14:11:43;;;;;;;3.35;1.10;;;27.00;86.00;;;;;;5049532;28;20477;-31
2022/06/03 14:14:15;;;;;;;2.63;0.90;;;27.10;85.40;;;;;;5047937;28;20059;-31
2022/06/03 14:17:19;;;;;;;2.60;1.20;;;26.70;86.70;;;;;;5036073;28;20445;-35
2022/06/03 14:20:07;;;;;;;0.90;0.90;;;26.60;85.70;;;;;;5025443;28;20515;-36
2022/06/03 14:23:08;;;;;;;1.60;1.00;;;26.40;88.10;;;;;;5035417;28;20477;-48
2022/06/03 14:25:44;;;;;;;1.00;0.93;;;26.20;88.60;;;;;;5035624;28;20386;-38